Update 04.10.19: Almanach/History: Die WU Grafiken funktionieren wieder!!
Besuchen Sie den Menüpunkt "Almanach / History" WU-Grafiken um Wetterdaten über die Jahre zu vergleichen!
Die Daten stammen von meiner Wetterstation und wurden von Weatherunderground aufgezeichnet.
Extrem hohe Temperatur Gültig von: 09-07-2020 23:00 bis: 10-07-2020 22:59 Warnung für: Extrem hohe Temperatur Gefahrenstufe: Gelb info button

Rindlberg West Mehr Informationen Rindlberg West


Stuetzi - Rindlberg Ost Mehr Informationen Stuetzi - Rindlberg Ost


Regenradar Mehr Informationen rain snow radar


Sie finden meine Wetter-Infos auch auf:

Weather Underground

AWEKAS



METAR-Meldungen aus der Umgebung

   
LOWL - Linz
Aktualisierung: 09-07-2020 12:20
leicht bewölkt  
leicht bewölkt  
   Wind: WSW 11.1 km/h
Wind: WSW 11.1 km/h
Temperatur: 26°C
Taupunkt: 14°C
Luftfeuchte: 48%
Luftdruck: 1018 hPa
Wolken: leicht bewölkt
Sichtbarkeit: Mehr als 10 km
Bewölkung: leicht bewölkt 5000 ft
LOWL 091020Z 24006KT 200V300 9999 FEW050 26/14 Q1018 NOSIG
LOWW - Vienna
Aktualisierung: 09-07-2020 12:50
Klar  
Klar  
   Wind: OSO 11.1 km/h
Wind: OSO 11.1 km/h
Temperatur: 25°C
Taupunkt: 16°C
Luftfeuchte: 57%
Luftdruck: 1018 hPa
Sichtbarkeit: Mehr als 10 km
Bewölkung: Klar
LOWW 091050Z 12006KT 050V150 CAVOK 25/16 Q1018 NOSIG
 

Script entwickelt von  Saratoga-weather.org Angepasst für das Template von  Weerstation Leuven